Portada
METAR-TAF:

METAR-TAF

Aeropuertos :

Lichinga, Mozambique

latitud: 13-18S, longitud: 035-14E, altitud: 1364 m

Observación

El informe se hizo hace 33 minutos, a las 04:00 UTC
Viento 5 kt del noreste
Temperatura 17°C
Humedad 94%
Presión 1023 hPa
Visibilidad 10 km o más
Nubes dispersas a una altura de 1600 ft
Nubes dispersas a una altura de 7000 ft

METAR: FQLC 280400Z 05005KT 9999 SCT016 SCT070 17/16 Q1023 NOSIG

Hora: 06:33 (04:33 UTC)

Pronóstico

El informe se hizo hace 6 horas y 33 minutos, a las 22:00 UTC
Pronóstico válido del 28 a las 00 UTC al 28 a las 24 UTC
Viento 8 kt del noreste
Visibilidad 10 km o más
Escasas nubes a una altura de 1500 ft
Evolucionando progresivamente
del 28 a las 06 UTC al 28 a las 08 UTC
Viento 10 kt del norte-noroeste
Evolucionando progresivamente
del 28 a las 12 UTC al 28 a las 14 UTC
Viento 10 kt del este

TAF: FQLC 272200Z 2800/2824 04008KT 9999 FEW015 TX26/2813Z TN13/2803Z BECMG 2806/2808 34010KT BECMG 2812/2814 08010KT

Observaciones y pronósticos meteorológicos de más de 4000 aeropuertos (mensajes METAR y TAF).

Los puntos amarillos y rojos representan las estaciones disponibles.

Ponga el ratón en el punto deseado para ver el nombre de la estación.

Haga clic para ver las observaciones y los pronósticos meteorológicos.

Para cambiar el mapa : haga clic en los botones verdes con una cruz de color negro para hacer un zoom, en el botón verde con un guión para alejar o en las flechas verdes para mapas adyacentes.


METAR-TAF: